createdAt,value
2023-05-04T00:01:57.405Z,100
2023-05-04T00:04:08.159Z,100
2023-05-04T00:06:14.914Z,100
2023-05-04T00:08:21.406Z,100
2023-05-04T00:10:28.016Z,100
2023-05-04T00:12:34.681Z,100
2023-05-04T00:14:43.421Z,100
2023-05-04T00:17:00.346Z,100
2023-05-04T00:19:07.934Z,100
2023-05-04T00:21:18.864Z,100
2023-05-04T00:23:25.595Z,100
2023-05-04T00:25:33.467Z,100
2023-05-04T00:27:39.988Z,100
2023-05-04T00:29:49.706Z,100
2023-05-04T00:31:56.362Z,100
2023-05-04T00:34:03.290Z,100
2023-05-04T00:36:11.332Z,100
2023-05-04T00:38:20.900Z,100
2023-05-04T00:40:31.048Z,100
2023-05-04T00:42:39.694Z,100
2023-05-04T00:44:46.250Z,100
2023-05-04T00:46:55.877Z,100
2023-05-04T00:49:02.423Z,100
2023-05-04T00:51:09.009Z,100
2023-05-04T00:53:17.757Z,100
2023-05-04T00:55:26.114Z,100
2023-05-04T00:57:39.614Z,100
2023-05-04T00:59:47.060Z,100
2023-05-04T01:01:54.439Z,100
2023-05-04T01:04:02.656Z,100
2023-05-04T01:06:13.064Z,100
2023-05-04T01:08:19.737Z,100
2023-05-04T01:10:26.349Z,100
2023-05-04T01:12:35.758Z,100
2023-05-04T01:14:41.983Z,100
2023-05-04T01:16:49.497Z,100
2023-05-04T01:18:56.719Z,100
2023-05-04T01:21:04.860Z,100
2023-05-04T01:23:12.207Z,100
2023-05-04T01:25:20.049Z,100
2023-05-04T01:27:31.426Z,100
2023-05-04T01:29:43.289Z,100
2023-05-04T01:31:49.832Z,100
2023-05-04T01:33:59.628Z,100
2023-05-04T01:36:06.085Z,100
2023-05-04T01:38:15.039Z,100
2023-05-04T01:40:22.387Z,100
2023-05-04T01:42:32.738Z,100
2023-05-04T01:44:40.039Z,100
2023-05-04T01:46:49.499Z,100
2023-05-04T01:48:56.579Z,100
2023-05-04T01:51:03.147Z,100
2023-05-04T01:53:12.498Z,100
2023-05-04T01:55:19.386Z,100
2023-05-04T01:57:27.961Z,100
2023-05-04T01:59:35.689Z,100
2023-05-04T02:01:45.660Z,100
2023-05-04T02:03:53.397Z,100
2023-05-04T02:06:01.832Z,100
2023-05-04T02:08:12.224Z,100
2023-05-04T02:10:18.795Z,100
2023-05-04T02:12:25.588Z,100
2023-05-04T02:14:34.075Z,100
2023-05-04T02:16:46.730Z,100
2023-05-04T02:19:10.109Z,100
2023-05-04T02:21:25.056Z,100
2023-05-04T02:23:31.956Z,100
2023-05-04T02:25:40.788Z,100
2023-05-04T02:27:47.439Z,100
2023-05-04T02:29:57.088Z,100
2023-05-04T02:32:06.898Z,100
2023-05-04T02:34:14.792Z,100
2023-05-04T02:36:23.948Z,100
2023-05-04T02:38:36.419Z,100
2023-05-04T02:40:46.041Z,100
2023-05-04T02:42:52.803Z,100
2023-05-04T02:45:12.011Z,100
2023-05-04T02:47:27.075Z,100
2023-05-04T02:49:36.558Z,100
2023-05-04T02:51:42.964Z,100
2023-05-04T02:53:51.613Z,100
2023-05-04T02:56:03.173Z,100
2023-05-04T02:58:10.320Z,100
2023-05-04T03:00:16.935Z,100
2023-05-04T03:02:23.501Z,100
2023-05-04T03:04:31.540Z,100
2023-05-04T03:06:38.053Z,100
2023-05-04T03:08:50.679Z,100
2023-05-04T03:10:58.727Z,100
2023-05-04T03:13:05.221Z,100
2023-05-04T03:15:16.777Z,100
2023-05-04T03:17:27.406Z,100
2023-05-04T03:19:35.014Z,100
2023-05-04T03:21:51.931Z,100
2023-05-04T03:23:59.266Z,100
2023-05-04T03:26:05.693Z,100
2023-05-04T03:28:16.649Z,100
2023-05-04T03:30:23.236Z,100
2023-05-04T03:32:33.851Z,100
2023-05-04T03:34:52.433Z,100
2023-05-04T03:36:59.103Z,100
2023-05-04T03:39:06.451Z,100
2023-05-04T03:41:16.592Z,100
2023-05-04T03:43:26.629Z,100
2023-05-04T03:45:36.457Z,100
2023-05-04T03:47:48.424Z,100
2023-05-04T03:49:56.979Z,100
2023-05-04T03:52:05.718Z,100
2023-05-04T03:54:12.301Z,100
2023-05-04T03:56:24.180Z,100
2023-05-04T03:58:31.820Z,100
2023-05-04T04:00:45.127Z,100
2023-05-04T04:02:55.019Z,100
2023-05-04T04:05:04.553Z,100
2023-05-04T04:07:20.676Z,100
2023-05-04T04:09:27.387Z,100
2023-05-04T04:11:33.943Z,100
2023-05-04T04:13:40.432Z,100
2023-05-04T04:15:55.462Z,100
2023-05-04T04:18:02.241Z,100
2023-05-04T04:20:12.981Z,100
2023-05-04T04:22:23.638Z,100
2023-05-04T04:24:35.699Z,100
2023-05-04T04:26:51.252Z,100
2023-05-04T04:29:02.813Z,100
2023-05-04T04:31:09.454Z,100
2023-05-04T04:33:20.443Z,100
2023-05-04T04:35:34.403Z,100
2023-05-04T04:37:41.370Z,100
2023-05-04T04:39:50.522Z,100
2023-05-04T04:42:00.723Z,100
2023-05-04T04:44:10.167Z,100
2023-05-04T04:46:23.307Z,100
2023-05-04T04:48:29.915Z,100
2023-05-04T04:50:39.473Z,100
2023-05-04T04:52:45.915Z,100
2023-05-04T04:54:56.763Z,100
2023-05-04T04:57:09.498Z,100
2023-05-04T04:59:20.010Z,100
2023-05-04T05:01:42.645Z,100
2023-05-04T05:03:52.427Z,100
2023-05-04T05:06:00.542Z,100
2023-05-04T05:08:09.432Z,100
2023-05-04T05:10:15.955Z,100
2023-05-04T05:12:24.479Z,100
2023-05-04T05:14:34.435Z,100
2023-05-04T05:16:42.298Z,100
2023-05-04T05:18:50.285Z,100
2023-05-04T05:20:59.935Z,100
2023-05-04T05:23:12.008Z,100
2023-05-04T05:25:22.804Z,100
2023-05-04T05:27:33.166Z,100
2023-05-04T05:29:42.821Z,100
2023-05-04T05:31:50.901Z,100
2023-05-04T05:34:05.040Z,100
2023-05-04T05:36:13.405Z,100
2023-05-04T05:38:21.432Z,100
2023-05-04T05:40:33.610Z,100
2023-05-04T05:42:47.434Z,100
2023-05-04T05:45:00.092Z,100
2023-05-04T05:47:06.764Z,100
2023-05-04T05:49:25.405Z,100
2023-05-04T05:51:34.384Z,100
2023-05-04T05:53:47.891Z,100
2023-05-04T05:56:01.468Z,100
2023-05-04T05:58:09.954Z,100
2023-05-04T06:00:17.992Z,100
2023-05-04T06:02:32.358Z,100
2023-05-04T06:04:41.002Z,100
2023-05-04T06:06:56.663Z,100
2023-05-04T06:09:04.348Z,100
2023-05-04T06:11:11.967Z,100
2023-05-04T06:13:25.103Z,100
2023-05-04T06:15:31.794Z,100
2023-05-04T06:17:38.971Z,100
2023-05-04T06:19:54.021Z,100
2023-05-04T06:22:05.783Z,100
2023-05-04T06:24:15.310Z,100
2023-05-04T06:26:27.109Z,100
2023-05-04T06:28:50.356Z,100
2023-05-04T06:31:02.814Z,100
2023-05-04T06:33:13.607Z,100
2023-05-04T06:35:24.400Z,100
2023-05-04T06:37:44.093Z,100
2023-05-04T06:39:57.949Z,100
2023-05-04T06:42:21.524Z,100
2023-05-04T06:44:29.503Z,100
2023-05-04T06:46:37.682Z,100
2023-05-04T06:48:45.099Z,100
2023-05-04T06:50:51.974Z,100
2023-05-04T06:52:59.706Z,100
2023-05-04T06:55:11.064Z,100
2023-05-04T06:57:18.200Z,100
2023-05-04T06:59:28.634Z,100
2023-05-04T07:01:35.646Z,100
2023-05-04T07:03:42.413Z,100
2023-05-04T07:05:49.456Z,100
2023-05-04T07:07:56.124Z,100
2023-05-04T07:10:03.959Z,100
2023-05-04T07:12:11.134Z,100
2023-05-04T07:14:17.719Z,100
2023-05-04T07:16:25.546Z,100
2023-05-04T07:18:32.618Z,100
2023-05-04T07:20:45.369Z,100
2023-05-04T07:22:56.252Z,100
2023-05-04T07:25:08.140Z,94.48
2023-05-04T07:27:19.910Z,87.32
2023-05-04T07:29:33.802Z,84.19
2023-05-04T07:31:57.232Z,87.82
2023-05-04T07:34:08.384Z,78.37
2023-05-04T07:36:22.835Z,86.55
2023-05-04T07:38:40.024Z,84.33
2023-05-04T07:40:48.533Z,79.7
2023-05-04T07:42:56.071Z,78.11
2023-05-04T07:45:07.744Z,77.94
2023-05-04T07:47:17.652Z,74.29
2023-05-04T07:49:29.669Z,79.51
2023-05-04T07:51:36.203Z,82.6
2023-05-04T07:53:42.447Z,77.58
2023-05-04T07:55:48.997Z,74.07
2023-05-04T07:57:55.573Z,72.8
2023-05-04T08:00:05.737Z,73.51
2023-05-04T08:02:16.403Z,70.2
2023-05-04T08:04:24.555Z,70.21
2023-05-04T08:06:34.901Z,67.45
2023-05-04T08:08:44.548Z,72.66
2023-05-04T08:11:02.171Z,69.76
2023-05-04T08:13:17.238Z,70.97
2023-05-04T08:15:25.963Z,67.78
2023-05-04T08:17:33.368Z,67.09
2023-05-04T08:19:39.458Z,68.99
2023-05-04T08:21:45.825Z,67.81
2023-05-04T08:23:57.030Z,66.09
2023-05-04T08:26:04.846Z,63.5
2023-05-04T08:28:11.077Z,68.42
2023-05-04T08:30:18.556Z,63.82
2023-05-04T08:32:26.294Z,61.3
2023-05-04T08:34:35.909Z,62.73
2023-05-04T08:36:43.906Z,62.66
2023-05-04T08:38:52.254Z,60.69
2023-05-04T08:40:58.953Z,59.75
2023-05-04T08:43:06.739Z,64.13
2023-05-04T08:45:15.170Z,59.29
2023-05-04T08:47:24.908Z,60.55
2023-05-04T08:49:32.734Z,60.73
2023-05-04T08:51:42.746Z,56.97
2023-05-04T08:53:50.069Z,57.55
2023-05-04T08:55:56.833Z,55.41
2023-05-04T08:58:04.520Z,55.53
2023-05-04T09:00:12.099Z,55.63
2023-05-04T09:02:19.628Z,53.6
2023-05-04T09:04:29.922Z,56.8
2023-05-04T09:06:37.028Z,56.41
2023-05-04T09:08:45.296Z,55.86
2023-05-04T09:10:54.775Z,53.91
2023-05-04T09:13:02.989Z,55.76
2023-05-04T09:15:11.667Z,55.09
2023-05-04T09:17:20.007Z,54.66
2023-05-04T09:19:28.212Z,54.8
2023-05-04T09:22:15.564Z,54.55
2023-05-04T09:24:23.672Z,53.16
2023-05-04T09:26:33.280Z,54.35
2023-05-04T09:28:41.057Z,56.59
2023-05-04T09:30:48.745Z,53.42
2023-05-04T09:32:56.416Z,50.78
2023-05-04T09:35:04.633Z,50.35
2023-05-04T09:37:15.031Z,52.09
2023-05-04T09:39:23.081Z,51.41
2023-05-04T09:41:29.839Z,50.85
2023-05-04T09:43:37.987Z,52.38
2023-05-04T09:45:44.512Z,52.71
2023-05-04T09:47:53.800Z,50.12
2023-05-04T09:50:00.747Z,51.31
2023-05-04T09:52:08.130Z,50.57
2023-05-04T09:54:14.593Z,51.53
2023-05-04T09:56:21.036Z,48.39
2023-05-04T09:58:27.886Z,50.2
2023-05-04T10:00:38.218Z,48.9
2023-05-04T10:02:46.274Z,49.63
2023-05-04T10:04:58.314Z,50.48
2023-05-04T10:07:06.286Z,50.26
2023-05-04T10:09:12.849Z,51.52
2023-05-04T10:11:20.261Z,46.48
2023-05-04T10:13:28.927Z,45.99
2023-05-04T10:15:36.521Z,48.47
2023-05-04T10:17:44.857Z,49.35
2023-05-04T10:19:53.207Z,47.18
2023-05-04T10:22:04.061Z,50.67
2023-05-04T10:24:17.411Z,46.36
2023-05-04T10:26:24.285Z,45.49
2023-05-04T10:28:31.592Z,47.86
2023-05-04T10:30:42.839Z,48.2
2023-05-04T10:32:52.741Z,48.41
2023-05-04T10:35:02.679Z,45.57
2023-05-04T10:37:09.640Z,46.04
2023-05-04T10:39:16.481Z,48.89
2023-05-04T10:41:24.432Z,43.96
2023-05-04T10:43:33.030Z,46.98
2023-05-04T10:45:40.618Z,44.83
2023-05-04T10:47:49.504Z,43.92
2023-05-04T10:49:57.265Z,48.16
2023-05-04T10:52:04.637Z,45.85
2023-05-04T10:54:12.991Z,48.19
2023-05-04T10:56:19.673Z,44.76
2023-05-04T10:58:28.637Z,46.12
2023-05-04T11:00:36.268Z,44.57
2023-05-04T11:02:46.986Z,44.65
2023-05-04T11:04:54.365Z,43.07
2023-05-04T11:07:01.928Z,44.29
2023-05-04T11:09:08.847Z,45.06
2023-05-04T11:11:16.971Z,41.9
2023-05-04T11:13:30.575Z,43.09
2023-05-04T11:15:38.222Z,42.08
2023-05-04T11:17:50.128Z,42.01
2023-05-04T11:19:57.108Z,42.48
2023-05-04T11:22:05.425Z,41.55
2023-05-04T11:24:17.859Z,44.11
2023-05-04T11:26:26.162Z,39.8
2023-05-04T11:28:39.028Z,40.13
2023-05-04T11:30:50.065Z,39.58
2023-05-04T11:32:57.125Z,44.41
2023-05-04T11:35:06.064Z,39.43
2023-05-04T11:37:13.753Z,40.74
2023-05-04T11:39:23.064Z,41.49
2023-05-04T11:41:30.236Z,40.45
2023-05-04T11:43:39.993Z,42.6
2023-05-04T11:45:47.934Z,39.9
2023-05-04T11:47:56.839Z,40.06
2023-05-04T11:50:05.022Z,40.2
2023-05-04T11:52:12.794Z,39.15
2023-05-04T11:54:20.757Z,41.93
2023-05-04T11:56:28.427Z,38.21
2023-05-04T11:58:41.953Z,41.93
2023-05-04T12:00:59.250Z,39.48
2023-05-04T12:03:08.774Z,39.62
2023-05-04T12:05:16.594Z,39.32
2023-05-04T12:07:24.047Z,41.31
2023-05-04T12:09:35.670Z,39.38
2023-05-04T12:11:46.301Z,41.75
2023-05-04T12:13:53.972Z,39.35
2023-05-04T12:16:03.470Z,40.19
2023-05-04T12:18:14.248Z,39.88
2023-05-04T12:20:22.737Z,39.6
2023-05-04T12:22:33.436Z,40.15
2023-05-04T12:24:41.118Z,39.76
2023-05-04T12:26:51.144Z,43.39
2023-05-04T12:28:58.743Z,43.68
2023-05-04T12:31:07.071Z,43.13
2023-05-04T12:33:17.297Z,44.11
2023-05-04T12:35:25.615Z,43.29
2023-05-04T12:37:35.845Z,42.71
2023-05-04T12:39:42.488Z,42.03
2023-05-04T12:41:53.770Z,42.14
2023-05-04T12:44:01.823Z,41.81
2023-05-04T12:46:09.952Z,40.12
2023-05-04T12:48:20.651Z,41.44
2023-05-04T12:50:32.047Z,41.49
2023-05-04T12:52:39.848Z,40.48
2023-05-04T12:54:47.891Z,41.12
2023-05-04T12:56:55.957Z,41.89
2023-05-04T12:59:06.759Z,40.59
2023-05-04T13:01:15.590Z,40.53
2023-05-04T13:03:27.224Z,44.19
2023-05-04T13:05:34.837Z,39.16
2023-05-04T13:07:47.063Z,42.39
2023-05-04T13:09:56.494Z,40.27
2023-05-04T13:12:09.772Z,41.04
2023-05-04T13:14:19.597Z,41.89
2023-05-04T13:16:27.815Z,42.77
2023-05-04T13:18:35.302Z,42.95
2023-05-04T13:20:43.426Z,42.87
2023-05-04T13:22:51.708Z,40.59
2023-05-04T13:24:58.708Z,40.94
2023-05-04T13:27:06.615Z,41.63
2023-05-04T13:29:14.236Z,42.82
2023-05-04T13:31:21.813Z,39.58
2023-05-04T13:33:38.870Z,40.41
2023-05-04T13:35:49.376Z,40.65
2023-05-04T13:37:58.407Z,40.24
2023-05-04T13:40:06.821Z,41.12
2023-05-04T13:42:15.509Z,43.46
2023-05-04T13:44:25.236Z,41.6
2023-05-04T13:46:33.928Z,42.84
2023-05-04T13:48:41.444Z,42.09
2023-05-04T13:50:53.476Z,43.65
2023-05-04T13:53:01.959Z,41
2023-05-04T13:55:10.120Z,42.11
2023-05-04T13:57:22.008Z,40.34
2023-05-04T13:59:33.237Z,42.12
2023-05-04T14:01:40.921Z,39.37
2023-05-04T14:03:48.751Z,41.68
2023-05-04T14:05:59.543Z,40.9
2023-05-04T14:08:06.629Z,41.77
2023-05-04T14:10:14.326Z,39.58
2023-05-04T14:12:25.543Z,38.72
2023-05-04T14:14:33.349Z,40.05
2023-05-04T14:16:43.163Z,38.71
2023-05-04T14:18:51.546Z,38.72
2023-05-04T14:20:59.357Z,37.66
2023-05-04T14:23:07.512Z,38.98
2023-05-04T14:25:15.653Z,39.07
2023-05-04T14:27:23.688Z,41.2
2023-05-04T14:29:31.950Z,39.73
2023-05-04T14:31:40.104Z,39.96
2023-05-04T14:33:48.035Z,40.29
2023-05-04T14:35:55.979Z,40.64
2023-05-04T14:38:07.018Z,41.85
2023-05-04T14:40:18.317Z,42.87
2023-05-04T14:42:28.328Z,42.31
2023-05-04T14:44:35.889Z,42.21
2023-05-04T14:46:44.110Z,42.9
2023-05-04T14:48:51.520Z,44.3
2023-05-04T14:50:58.968Z,43.45
2023-05-04T14:53:07.858Z,43.38
2023-05-04T14:55:15.455Z,44.57
2023-05-04T14:57:23.373Z,44.01
2023-05-04T14:59:31.578Z,43.92
2023-05-04T15:01:39.127Z,43.18
2023-05-04T15:03:47.591Z,42.77
2023-05-04T15:05:55.364Z,43.55
2023-05-04T15:08:03.050Z,44.03
2023-05-04T15:10:12.194Z,43.61
2023-05-04T15:12:20.293Z,43.12
2023-05-04T15:14:27.553Z,44.66
2023-05-04T15:16:37.425Z,46.27
2023-05-04T15:18:45.141Z,44.37
2023-05-04T15:20:53.617Z,44.84
2023-05-04T15:23:02.334Z,44.66
2023-05-04T15:25:09.996Z,44.65
2023-05-04T15:27:21.490Z,45.1
2023-05-04T15:29:31.585Z,44.14
2023-05-04T15:31:41.163Z,43.68
2023-05-04T15:33:48.872Z,43.75
2023-05-04T15:35:57.180Z,44.38
2023-05-04T15:38:05.772Z,43.88
2023-05-04T15:40:14.595Z,44.72
2023-05-04T15:42:23.487Z,43.56
2023-05-04T15:44:31.493Z,44.76
2023-05-04T15:46:39.403Z,46
2023-05-04T15:48:46.819Z,46.32
2023-05-04T15:50:55.561Z,45.8
2023-05-04T15:53:03.796Z,44.46
2023-05-04T15:55:30.106Z,45.6
2023-05-04T15:57:37.895Z,43.85
2023-05-04T15:59:48.338Z,43.7
2023-05-04T16:01:56.018Z,44.74
2023-05-04T16:04:04.272Z,44.47
2023-05-04T16:06:12.278Z,43.22
2023-05-04T16:08:21.896Z,43.66
2023-05-04T16:10:29.806Z,41.29
2023-05-04T16:12:37.896Z,42.15
2023-05-04T16:14:45.750Z,41.46
2023-05-04T16:16:53.458Z,42.59
2023-05-04T16:19:04.905Z,42.22
2023-05-04T16:21:12.921Z,43.91
2023-05-04T16:23:21.014Z,45.68
2023-05-04T16:25:29.751Z,46.53
2023-05-04T16:27:38.583Z,45.31
2023-05-04T16:29:46.429Z,46.02
2023-05-04T16:31:54.407Z,45.38
2023-05-04T16:34:02.208Z,45.21
2023-05-04T16:36:14.276Z,45.45
2023-05-04T16:38:23.300Z,45.17
2023-05-04T16:40:32.538Z,45.18
2023-05-04T16:42:45.570Z,45.66
2023-05-04T16:44:54.560Z,47.64
2023-05-04T16:47:03.071Z,49.41
2023-05-04T16:49:16.428Z,47.87
2023-05-04T16:51:24.972Z,50.78
2023-05-04T16:53:36.862Z,51.37
2023-05-04T16:55:44.787Z,53.75
2023-05-04T16:57:54.182Z,56.52
2023-05-04T17:00:15.904Z,57.79
2023-05-04T17:02:25.663Z,58.41
2023-05-04T17:04:36.020Z,60.1
2023-05-04T17:06:44.118Z,59.68
2023-05-04T17:08:51.665Z,60.31
2023-05-04T17:10:59.587Z,62.87
2023-05-04T17:13:11.141Z,64.1
2023-05-04T17:15:19.299Z,65.39
2023-05-04T17:17:26.966Z,67.8
2023-05-04T17:19:38.788Z,69.95
2023-05-04T17:21:46.979Z,73.52
2023-05-04T17:23:54.336Z,76.51
2023-05-04T17:26:01.835Z,78.24
2023-05-04T17:28:10.872Z,81.49
2023-05-04T17:30:19.009Z,81.86
2023-05-04T17:32:27.102Z,83.56
2023-05-04T17:34:35.161Z,91.09
2023-05-04T17:36:43.133Z,93.95
2023-05-04T17:39:04.985Z,93.83
2023-05-04T17:41:12.588Z,99.55
2023-05-04T17:43:23.478Z,99.81
2023-05-04T17:45:31.274Z,100
2023-05-04T17:47:39.716Z,100
2023-05-04T17:49:47.489Z,100
2023-05-04T17:51:55.995Z,100
2023-05-04T17:54:04.373Z,100
2023-05-04T17:56:12.575Z,100
2023-05-04T17:58:21.143Z,100
2023-05-04T18:00:43.171Z,100
2023-05-04T18:02:51.901Z,100
2023-05-04T18:05:13.834Z,100
2023-05-04T18:07:23.063Z,100
2023-05-04T18:09:31.726Z,100
2023-05-04T18:11:40.413Z,100
2023-05-04T18:13:48.648Z,100
2023-05-04T18:15:58.691Z,100
2023-05-04T18:18:07.206Z,100
2023-05-04T18:20:15.953Z,100
2023-05-04T18:22:25.930Z,100
2023-05-04T18:24:35.956Z,100
2023-05-04T18:26:45.713Z,100
2023-05-04T18:28:53.569Z,100
2023-05-04T18:31:04.486Z,100
2023-05-04T18:33:13.044Z,100
2023-05-04T18:35:23.147Z,100
2023-05-04T18:37:32.212Z,100
2023-05-04T18:39:40.326Z,100
2023-05-04T18:41:59.869Z,100
2023-05-04T18:44:10.810Z,100
2023-05-04T18:46:29.774Z,100
2023-05-04T18:48:41.665Z,100
2023-05-04T18:50:54.723Z,100
2023-05-04T18:53:04.492Z,100
2023-05-04T18:55:13.505Z,100
2023-05-04T18:57:39.087Z,100
2023-05-04T18:59:54.369Z,100
2023-05-04T19:02:06.184Z,100
2023-05-04T19:04:19.318Z,100
2023-05-04T19:06:29.247Z,100
2023-05-04T19:08:37.589Z,100
2023-05-04T19:10:45.738Z,100
2023-05-04T19:12:54.966Z,100
2023-05-04T19:15:02.663Z,100
2023-05-04T19:17:10.907Z,100
2023-05-04T19:19:18.610Z,100
2023-05-04T19:21:27.592Z,100
2023-05-04T19:23:35.616Z,100
2023-05-04T19:25:43.128Z,100
2023-05-04T19:28:19.173Z,100
2023-05-04T19:30:27.779Z,100
2023-05-04T19:32:36.592Z,100
2023-05-04T19:34:45.044Z,100
2023-05-04T19:36:53.283Z,100
2023-05-04T19:39:01.672Z,100
2023-05-04T19:41:09.763Z,100
2023-05-04T19:43:20.867Z,100
2023-05-04T19:45:31.353Z,100
2023-05-04T19:47:40.076Z,100
2023-05-04T19:49:50.353Z,100
2023-05-04T19:51:58.810Z,100
2023-05-04T19:54:08.303Z,100
2023-05-04T19:56:20.368Z,100
2023-05-04T19:58:29.648Z,100
2023-05-04T20:00:38.150Z,100
2023-05-04T20:02:51.029Z,100
2023-05-04T20:04:58.910Z,100
2023-05-04T20:07:08.160Z,100
2023-05-04T20:09:16.156Z,100
2023-05-04T20:11:23.999Z,100
2023-05-04T20:13:33.776Z,100
2023-05-04T20:15:41.816Z,100
2023-05-04T20:17:50.951Z,100
2023-05-04T20:19:59.386Z,100
2023-05-04T20:22:07.366Z,100
2023-05-04T20:24:15.486Z,100
2023-05-04T20:26:23.898Z,100
2023-05-04T20:28:31.616Z,100
2023-05-04T20:30:42.461Z,100
2023-05-04T20:32:50.706Z,100
2023-05-04T20:34:58.906Z,100
2023-05-04T20:37:06.516Z,100
2023-05-04T20:39:13.094Z,100
2023-05-04T20:41:24.727Z,100
2023-05-04T20:43:34.334Z,100
2023-05-04T20:45:42.878Z,100
2023-05-04T20:47:52.160Z,100
2023-05-04T20:50:00.176Z,100
2023-05-04T20:52:09.036Z,100
2023-05-04T20:54:19.483Z,100
2023-05-04T20:56:26.925Z,100
2023-05-04T20:58:34.832Z,100
2023-05-04T21:00:44.748Z,100
2023-05-04T21:02:53.443Z,100
2023-05-04T21:05:03.681Z,100
2023-05-04T21:07:11.308Z,100
2023-05-04T21:09:18.036Z,100
2023-05-04T21:11:28.401Z,100
2023-05-04T21:13:36.537Z,100
2023-05-04T21:15:43.545Z,100
2023-05-04T21:17:50.740Z,100
2023-05-04T21:19:57.906Z,100
2023-05-04T21:22:04.473Z,100
2023-05-04T21:24:12.601Z,100
2023-05-04T21:26:19.623Z,100
2023-05-04T21:28:27.517Z,100
2023-05-04T21:30:34.898Z,100
2023-05-04T21:32:41.557Z,100
2023-05-04T21:34:49.581Z,100
2023-05-04T21:36:57.004Z,100
2023-05-04T21:39:03.533Z,100
2023-05-04T21:41:11.824Z,100
2023-05-04T21:43:21.786Z,100
2023-05-04T21:45:30.241Z,100
2023-05-04T21:47:37.431Z,100
2023-05-04T21:49:44.174Z,100
2023-05-04T21:51:51.451Z,100
2023-05-04T21:53:58.733Z,100
2023-05-04T21:56:05.577Z,100
2023-05-04T21:58:12.004Z,100
2023-05-04T22:00:21.735Z,100
2023-05-04T22:02:29.415Z,100
2023-05-04T22:04:36.290Z,100
2023-05-04T22:06:42.561Z,100
2023-05-04T22:08:50.008Z,100
2023-05-04T22:10:56.682Z,100
2023-05-04T22:13:04.220Z,100
2023-05-04T22:15:11.167Z,100
2023-05-04T22:17:18.109Z,100
2023-05-04T22:19:24.906Z,100
2023-05-04T22:21:31.659Z,100
2023-05-04T22:23:37.651Z,100
2023-05-04T22:26:01.048Z,100
2023-05-04T22:28:07.845Z,100
2023-05-04T22:30:15.465Z,100
2023-05-04T22:32:22.391Z,100
2023-05-04T22:34:31.054Z,100
2023-05-04T22:36:37.521Z,100
2023-05-04T22:38:44.594Z,100
2023-05-04T22:40:52.104Z,100
2023-05-04T22:42:58.428Z,100
2023-05-04T22:45:05.298Z,100
2023-05-04T22:47:12.338Z,100
2023-05-04T22:49:19.087Z,100
2023-05-04T22:51:25.585Z,100
2023-05-04T22:53:32.182Z,100
2023-05-04T22:55:53.203Z,100
2023-05-04T22:58:02.160Z,100
2023-05-04T23:00:12.236Z,100
2023-05-04T23:02:20.292Z,100
2023-05-04T23:04:28.261Z,100
2023-05-04T23:06:36.814Z,100
2023-05-04T23:08:43.510Z,100
2023-05-04T23:10:50.081Z,100
2023-05-04T23:12:56.451Z,100
2023-05-04T23:15:03.328Z,100
2023-05-04T23:17:09.609Z,100
2023-05-04T23:19:19.043Z,100
2023-05-04T23:21:26.327Z,100
2023-05-04T23:23:32.960Z,100
2023-05-04T23:25:39.250Z,100
2023-05-04T23:27:45.867Z,100
2023-05-04T23:29:52.527Z,100
2023-05-04T23:31:59.515Z,100
2023-05-04T23:34:05.884Z,100
2023-05-04T23:36:12.960Z,100
2023-05-04T23:38:19.494Z,100
2023-05-04T23:40:26.290Z,100
2023-05-04T23:42:34.650Z,100
2023-05-04T23:44:41.300Z,100
2023-05-04T23:46:48.281Z,100
2023-05-04T23:48:56.199Z,100
2023-05-04T23:51:02.790Z,100
2023-05-04T23:53:09.745Z,100
2023-05-04T23:55:16.163Z,100
2023-05-04T23:57:22.499Z,100
2023-05-04T23:59:29.078Z,100
